createdAt,value
2022-09-18T00:01:27.682Z,10.90
2022-09-18T00:03:59.861Z,10.90
2022-09-18T00:06:29.904Z,10.90
2022-09-18T00:08:58.835Z,10.90
2022-09-18T00:11:28.861Z,10.90
2022-09-18T00:13:56.735Z,10.90
2022-09-18T00:16:24.643Z,10.90
2022-09-18T00:18:51.678Z,10.90
2022-09-18T00:21:21.628Z,11.00
2022-09-18T00:23:48.869Z,10.90
2022-09-18T00:26:18.494Z,10.90
2022-09-18T00:28:46.403Z,10.90
2022-09-18T00:31:20.036Z,10.90
2022-09-18T00:33:47.625Z,10.90
2022-09-18T00:36:18.161Z,10.90
2022-09-18T00:38:45.893Z,11.00
2022-09-18T00:41:19.383Z,11.00
2022-09-18T00:43:46.327Z,11.00
2022-09-18T00:46:19.031Z,11.00
2022-09-18T00:49:04.328Z,11.00
2022-09-18T00:51:34.659Z,11.00
2022-09-18T00:54:23.107Z,11.00
2022-09-18T00:56:54.182Z,11.00
2022-09-18T00:59:26.765Z,11.00
2022-09-18T01:01:55.822Z,11.00
2022-09-18T01:04:22.909Z,11.00
2022-09-18T01:07:00.402Z,11.00
2022-09-18T01:09:43.068Z,11.00
2022-09-18T01:12:26.126Z,11.00
2022-09-18T01:15:30.890Z,11.00
2022-09-18T01:18:28.606Z,11.00
2022-09-18T01:21:08.941Z,11.00
2022-09-18T01:24:13.542Z,11.00
2022-09-18T01:27:03.598Z,11.00
2022-09-18T01:30:02.584Z,10.90
2022-09-18T01:32:41.061Z,10.90
2022-09-18T01:35:42.763Z,10.90
2022-09-18T01:38:18.611Z,10.90
2022-09-18T01:41:06.997Z,10.90
2022-09-18T01:43:36.314Z,10.80
2022-09-18T01:46:09.453Z,10.80
2022-09-18T01:48:41.888Z,10.80
2022-09-18T01:51:23.736Z,10.80
2022-09-18T01:54:15.717Z,10.80
2022-09-18T01:57:06.496Z,10.80
2022-09-18T01:59:56.152Z,10.80
2022-09-18T02:02:32.680Z,10.70
2022-09-18T02:05:07.797Z,10.70
2022-09-18T02:08:05.846Z,10.70
2022-09-18T02:10:37.412Z,10.60
2022-09-18T02:13:07.020Z,10.70
2022-09-18T02:15:38.218Z,10.70
2022-09-18T02:18:10.407Z,10.70
2022-09-18T02:20:41.148Z,10.70
2022-09-18T02:23:09.195Z,10.70
2022-09-18T02:26:04.697Z,10.60
2022-09-18T02:28:33.325Z,10.60
2022-09-18T02:31:01.040Z,10.60
2022-09-18T02:33:30.797Z,10.60
2022-09-18T02:36:34.899Z,10.50
2022-09-18T02:39:23.748Z,10.50
2022-09-18T02:42:09.063Z,10.40
2022-09-18T02:44:54.477Z,10.40
2022-09-18T02:47:46.866Z,10.30
2022-09-18T02:50:28.578Z,10.30
2022-09-18T02:53:04.462Z,10.20
2022-09-18T02:55:47.347Z,10.10
2022-09-18T02:58:45.135Z,10.10
2022-09-18T03:01:14.008Z,10.10
2022-09-18T03:03:41.819Z,10.00
2022-09-18T03:06:09.008Z,10.00
2022-09-18T03:08:36.305Z,10.00
2022-09-18T03:13:43.458Z,9.80
2022-09-18T03:16:10.415Z,9.70
2022-09-18T03:18:37.460Z,9.70
2022-09-18T03:21:04.909Z,9.60
2022-09-18T03:23:31.839Z,9.50
2022-09-18T03:25:58.905Z,9.40
2022-09-18T03:28:25.829Z,9.40
2022-09-18T03:30:52.723Z,9.40
2022-09-18T03:33:19.664Z,9.40
2022-09-18T03:35:46.579Z,9.40
2022-09-18T03:38:13.552Z,9.40
2022-09-18T03:40:47.563Z,9.40
2022-09-18T03:43:14.934Z,9.40
2022-09-18T03:45:42.772Z,9.40
2022-09-18T03:48:09.739Z,9.40
2022-09-18T03:50:36.685Z,9.40
2022-09-18T03:53:03.775Z,9.40
2022-09-18T03:55:31.053Z,9.30
2022-09-18T03:57:57.943Z,9.20
2022-09-18T04:00:25.684Z,9.20
2022-09-18T04:02:52.702Z,9.10
2022-09-18T04:05:19.722Z,9.10
2022-09-18T04:07:46.728Z,9.00
2022-09-18T04:10:13.922Z,8.90
2022-09-18T04:12:41.055Z,8.80
2022-09-18T04:15:08.712Z,8.70
2022-09-18T04:17:35.645Z,8.70
2022-09-18T04:20:02.834Z,8.60
2022-09-18T04:22:29.816Z,8.60
2022-09-18T04:24:56.795Z,8.60
2022-09-18T04:27:23.733Z,8.50
2022-09-18T04:29:50.645Z,8.50
2022-09-18T04:32:17.626Z,8.50
2022-09-18T04:34:44.522Z,8.50
2022-09-18T04:37:11.458Z,8.50
2022-09-18T04:39:38.399Z,8.40
2022-09-18T04:42:05.478Z,8.40
2022-09-18T04:44:32.421Z,8.50
2022-09-18T04:46:59.466Z,8.60
2022-09-18T04:49:26.456Z,8.90
2022-09-18T04:51:53.391Z,9.10
2022-09-18T04:54:20.311Z,9.30
2022-09-18T04:56:47.216Z,9.40
2022-09-18T04:59:14.172Z,9.60
2022-09-18T05:01:41.147Z,9.70
2022-09-18T05:04:08.562Z,9.80
2022-09-18T05:06:35.498Z,9.90
2022-09-18T05:09:02.863Z,10.10
2022-09-18T05:11:30.157Z,10.20
2022-09-18T05:13:58.307Z,10.30
2022-09-18T05:16:26.346Z,10.40
2022-09-18T05:18:54.038Z,10.50
2022-09-18T05:21:20.989Z,10.50
2022-09-18T05:23:48.692Z,10.60
2022-09-18T05:26:15.735Z,10.60
2022-09-18T05:28:42.783Z,10.70
2022-09-18T05:31:10.222Z,10.70
2022-09-18T05:33:38.909Z,10.70
2022-09-18T05:36:06.076Z,10.70
2022-09-18T05:38:33.034Z,10.60
2022-09-18T05:41:01.850Z,10.60
2022-09-18T05:43:29.461Z,10.60
2022-09-18T05:45:57.002Z,10.60
2022-09-18T05:48:24.458Z,10.60
2022-09-18T05:50:52.185Z,10.60
2022-09-18T05:53:21.300Z,10.50
2022-09-18T05:55:48.890Z,10.60
2022-09-18T05:58:18.192Z,10.60
2022-09-18T06:00:46.264Z,10.70
2022-09-18T06:03:17.148Z,10.90
2022-09-18T06:05:51.336Z,11.00
2022-09-18T06:08:18.700Z,11.20
2022-09-18T06:10:45.641Z,11.30
2022-09-18T06:13:16.023Z,11.40
2022-09-18T06:15:50.109Z,11.50
2022-09-18T06:18:17.103Z,11.50
2022-09-18T06:20:51.488Z,11.50
2022-09-18T06:23:18.411Z,11.50
2022-09-18T06:25:45.325Z,11.60
2022-09-18T06:28:12.257Z,11.60
2022-09-18T06:30:39.167Z,11.70
2022-09-18T06:33:07.635Z,11.80
2022-09-18T06:35:35.896Z,11.90
2022-09-18T06:38:04.097Z,12.10
2022-09-18T06:40:32.087Z,12.30
2022-09-18T06:43:01.841Z,12.50
2022-09-18T06:45:31.016Z,12.70
2022-09-18T06:48:04.192Z,12.90
2022-09-18T06:50:31.414Z,12.90
2022-09-18T06:53:03.191Z,12.90
2022-09-18T06:55:31.693Z,12.80
2022-09-18T06:58:00.466Z,12.80
2022-09-18T07:00:28.605Z,12.80
2022-09-18T07:03:03.409Z,13.00
2022-09-18T07:05:33.354Z,13.20
2022-09-18T07:08:00.542Z,13.60
2022-09-18T07:10:28.191Z,13.90
2022-09-18T07:13:00.184Z,14.40
2022-09-18T07:15:27.838Z,14.90
2022-09-18T07:17:59.236Z,15.40
2022-09-18T07:20:27.103Z,15.80
2022-09-18T07:22:55.904Z,15.80
2022-09-18T07:25:23.815Z,15.70
2022-09-18T07:27:51.345Z,15.50
2022-09-18T07:30:19.053Z,15.20
2022-09-18T07:32:46.753Z,15.00
2022-09-18T07:35:13.771Z,14.90
2022-09-18T07:37:40.747Z,15.00
2022-09-18T07:40:09.415Z,15.10
2022-09-18T07:42:36.636Z,15.10
2022-09-18T07:45:04.067Z,15.10
2022-09-18T07:47:31.040Z,15.20
2022-09-18T07:49:57.963Z,15.30
2022-09-18T07:52:24.889Z,15.50
2022-09-18T07:54:51.941Z,15.60
2022-09-18T07:57:18.865Z,15.80
2022-09-18T07:59:45.794Z,15.80
2022-09-18T08:02:13.327Z,15.70
2022-09-18T08:04:40.467Z,15.50
2022-09-18T08:07:31.881Z,15.20
2022-09-18T08:09:58.948Z,15.00
2022-09-18T08:12:25.910Z,15.00
2022-09-18T08:14:52.912Z,15.10
2022-09-18T08:17:19.929Z,15.10
2022-09-18T08:19:46.923Z,15.10
2022-09-18T08:22:13.918Z,15.20
2022-09-18T08:24:40.850Z,15.40
2022-09-18T08:27:20.295Z,15.60
2022-09-18T08:29:47.772Z,15.90
2022-09-18T08:32:16.155Z,16.30
2022-09-18T08:34:43.090Z,16.70
2022-09-18T08:37:10.118Z,16.90
2022-09-18T08:39:37.114Z,17.00
2022-09-18T08:42:04.024Z,17.00
2022-09-18T08:44:37.246Z,17.10
2022-09-18T08:47:22.021Z,17.20
2022-09-18T08:50:04.363Z,17.20
2022-09-18T08:52:43.366Z,17.10
2022-09-18T08:55:33.498Z,17.10
2022-09-18T08:58:13.360Z,17.10
2022-09-18T09:00:50.734Z,17.40
2022-09-18T09:03:31.058Z,17.50
2022-09-18T09:06:07.239Z,17.60
2022-09-18T09:09:08.607Z,17.50
2022-09-18T09:12:04.305Z,17.30
2022-09-18T09:14:56.147Z,17.00
2022-09-18T09:17:32.687Z,16.90
2022-09-18T09:20:09.147Z,16.90
2022-09-18T09:22:45.074Z,17.00
2022-09-18T09:25:31.237Z,17.10
2022-09-18T09:28:16.704Z,17.30
2022-09-18T09:30:47.824Z,17.70
2022-09-18T09:33:14.604Z,17.90
2022-09-18T09:36:08.345Z,18.10
2022-09-18T09:38:47.368Z,18.30
2022-09-18T09:41:51.297Z,18.50
2022-09-18T09:44:39.537Z,18.60
2022-09-18T09:47:27.886Z,18.80
2022-09-18T09:50:16.644Z,18.80
2022-09-18T09:52:46.751Z,18.60
2022-09-18T09:55:13.634Z,18.50
2022-09-18T09:57:47.157Z,18.20
2022-09-18T10:00:18.177Z,18.00
2022-09-18T10:02:50.854Z,17.60
2022-09-18T10:05:42.516Z,17.40
2022-09-18T10:08:19.101Z,17.20
2022-09-18T10:10:54.499Z,17.00
2022-09-18T10:13:29.374Z,16.80
2022-09-18T10:16:02.496Z,16.60
2022-09-18T10:18:42.314Z,16.50
2022-09-18T10:21:17.024Z,16.50
2022-09-18T10:23:45.318Z,16.40
2022-09-18T10:26:21.880Z,16.40
2022-09-18T10:28:48.834Z,16.40
2022-09-18T10:31:17.589Z,16.50
2022-09-18T10:33:51.596Z,16.50
2022-09-18T10:36:37.782Z,16.50
2022-09-18T10:39:29.295Z,16.60
2022-09-18T10:42:05.459Z,16.60
2022-09-18T10:44:37.563Z,16.50
2022-09-18T10:47:08.999Z,16.30
2022-09-18T10:49:54.475Z,16.10
2022-09-18T10:52:30.010Z,16.00
2022-09-18T10:55:01.119Z,15.70
2022-09-18T10:57:34.518Z,15.70
2022-09-18T11:00:08.517Z,15.60
2022-09-18T11:02:41.656Z,15.50
2022-09-18T11:05:24.337Z,15.50
2022-09-18T11:07:54.598Z,15.50
2022-09-18T11:10:29.701Z,15.50
2022-09-18T11:12:59.462Z,15.50
2022-09-18T11:15:30.351Z,15.40
2022-09-18T11:18:00.862Z,15.50
2022-09-18T11:20:32.339Z,15.50
2022-09-18T11:23:27.369Z,15.70
2022-09-18T11:26:20.531Z,15.80
2022-09-18T11:29:06.544Z,15.90
2022-09-18T11:31:57.792Z,16.10
2022-09-18T11:34:31.474Z,16.20
2022-09-18T11:37:11.310Z,16.30
2022-09-18T11:39:45.199Z,16.50
2022-09-18T11:42:17.362Z,16.70
2022-09-18T11:44:45.293Z,16.90
2022-09-18T11:47:21.194Z,17.00
2022-09-18T11:49:58.483Z,17.20
2022-09-18T11:52:33.370Z,17.20
2022-09-18T11:55:20.149Z,17.30
2022-09-18T11:58:32.161Z,17.40
2022-09-18T12:01:35.503Z,17.40
2022-09-18T12:04:40.865Z,17.50
2022-09-18T12:07:13.662Z,17.50
2022-09-18T12:09:48.306Z,17.60
2022-09-18T12:12:20.630Z,17.70
2022-09-18T12:15:08.761Z,17.90
2022-09-18T12:17:49.815Z,18.20
2022-09-18T12:20:26.001Z,18.60
2022-09-18T12:22:55.608Z,18.80
2022-09-18T12:26:03.126Z,19.00
2022-09-18T12:28:41.383Z,19.10
2022-09-18T12:31:34.361Z,19.10
2022-09-18T12:34:47.859Z,19.10
2022-09-18T12:37:56.383Z,19.00
2022-09-18T12:40:50.701Z,18.90
2022-09-18T12:43:46.888Z,18.80
2022-09-18T12:46:25.584Z,18.70
2022-09-18T12:49:11.205Z,18.60
2022-09-18T12:52:18.051Z,18.70
2022-09-18T12:55:08.425Z,18.80
2022-09-18T12:57:58.804Z,18.90
2022-09-18T13:00:27.869Z,18.70
2022-09-18T13:03:11.846Z,18.60
2022-09-18T13:05:47.033Z,18.50
2022-09-18T13:08:29.894Z,18.20
2022-09-18T13:11:13.629Z,17.90
2022-09-18T13:13:55.829Z,17.50
2022-09-18T13:16:50.162Z,17.20
2022-09-18T13:19:37.864Z,17.00
2022-09-18T13:22:18.835Z,17.00
2022-09-18T13:24:50.279Z,17.00
2022-09-18T13:27:27.510Z,16.90
2022-09-18T13:30:00.881Z,16.90
2022-09-18T13:32:37.654Z,16.80
2022-09-18T13:35:11.134Z,16.80
2022-09-18T13:37:40.741Z,16.90
2022-09-18T13:40:46.960Z,16.90
2022-09-18T13:43:33.090Z,16.90
2022-09-18T13:46:07.320Z,17.00
2022-09-18T13:48:47.049Z,17.00
2022-09-18T13:51:28.514Z,17.10
2022-09-18T13:54:32.343Z,17.00
2022-09-18T13:57:10.730Z,17.00
2022-09-18T14:00:21.610Z,16.90
2022-09-18T14:03:12.202Z,16.70
2022-09-18T14:05:40.802Z,16.60
2022-09-18T14:08:22.596Z,16.60
2022-09-18T14:11:11.680Z,16.40
2022-09-18T14:13:55.454Z,16.40
2022-09-18T14:16:23.836Z,16.30
2022-09-18T14:19:06.832Z,16.30
2022-09-18T14:21:40.146Z,16.30
2022-09-18T14:24:23.420Z,16.30
2022-09-18T14:27:00.409Z,16.30
2022-09-18T14:29:30.795Z,16.40
2022-09-18T14:31:59.884Z,16.50
2022-09-18T14:34:41.726Z,16.70
2022-09-18T14:37:26.468Z,16.70
2022-09-18T14:39:55.658Z,16.60
2022-09-18T14:42:33.338Z,16.50
2022-09-18T14:45:15.159Z,16.40
2022-09-18T14:47:45.220Z,16.20
2022-09-18T14:50:21.351Z,16.10
2022-09-18T14:52:48.343Z,16.00
2022-09-18T14:55:22.854Z,15.90
2022-09-18T14:58:00.373Z,15.90
2022-09-18T15:00:30.756Z,15.70
2022-09-18T15:03:01.342Z,15.70
2022-09-18T15:05:29.760Z,15.60
2022-09-18T15:08:01.828Z,15.60
2022-09-18T15:10:29.745Z,15.60
2022-09-18T15:12:58.576Z,15.60
2022-09-18T15:15:30.464Z,15.50
2022-09-18T15:17:57.934Z,15.40
2022-09-18T15:20:26.190Z,15.40
2022-09-18T15:22:53.689Z,15.30
2022-09-18T15:25:31.011Z,15.20
2022-09-18T15:28:01.682Z,15.20
2022-09-18T15:30:29.136Z,15.00
2022-09-18T15:33:02.952Z,15.00
2022-09-18T15:35:34.045Z,14.90
2022-09-18T15:38:04.685Z,14.90
2022-09-18T15:40:37.350Z,14.80
2022-09-18T15:43:07.025Z,14.80
2022-09-18T15:45:35.763Z,14.70
2022-09-18T15:48:34.542Z,14.60
2022-09-18T15:51:16.162Z,14.50
2022-09-18T15:54:01.284Z,14.40
2022-09-18T15:56:28.722Z,14.30
2022-09-18T15:58:58.565Z,14.20
2022-09-18T16:01:35.390Z,14.10
2022-09-18T16:04:24.306Z,14.00
2022-09-18T16:07:03.108Z,13.90
2022-09-18T16:09:45.380Z,13.80
2022-09-18T16:12:30.775Z,13.70
2022-09-18T16:15:19.690Z,13.60
2022-09-18T16:17:46.612Z,13.50
2022-09-18T16:20:24.841Z,13.40
2022-09-18T16:22:55.528Z,13.30
2022-09-18T16:25:28.929Z,13.20
2022-09-18T16:27:58.928Z,13.00
2022-09-18T16:30:27.526Z,12.90
2022-09-18T16:33:13.647Z,12.70
2022-09-18T16:35:40.562Z,12.60
2022-09-18T16:38:09.481Z,12.40
2022-09-18T16:40:36.933Z,12.30
2022-09-18T16:43:03.889Z,12.20
2022-09-18T16:45:31.081Z,12.10
2022-09-18T16:48:00.614Z,12.00
2022-09-18T16:50:28.109Z,11.90
2022-09-18T16:52:58.471Z,11.90
2022-09-18T16:55:28.989Z,11.80
2022-09-18T16:57:57.026Z,11.80
2022-09-18T17:00:24.235Z,11.70
2022-09-18T17:02:52.317Z,11.60
2022-09-18T17:05:19.373Z,11.60
2022-09-18T17:07:46.496Z,11.40
2022-09-18T17:10:13.779Z,11.40
2022-09-18T17:12:41.965Z,11.30
2022-09-18T17:15:09.837Z,11.30
2022-09-18T17:20:23.504Z,11.20
2022-09-18T17:22:51.854Z,11.10
2022-09-18T17:25:19.005Z,11.10
2022-09-18T17:27:46.117Z,11.00
2022-09-18T17:30:13.551Z,11.00
2022-09-18T17:32:40.502Z,10.90
2022-09-18T17:35:08.142Z,10.80
2022-09-18T17:37:35.259Z,10.80
2022-09-18T17:40:02.690Z,10.70
2022-09-18T17:42:29.910Z,10.60
2022-09-18T17:44:56.895Z,10.60
2022-09-18T17:47:24.733Z,10.50
2022-09-18T17:49:51.657Z,10.40
2022-09-18T17:52:18.614Z,10.40
2022-09-18T17:54:45.570Z,10.30
2022-09-18T17:57:12.585Z,10.20
2022-09-18T17:59:44.325Z,10.20
2022-09-18T18:02:13.102Z,10.20
2022-09-18T18:04:40.325Z,10.20
2022-09-18T18:07:07.338Z,10.10
2022-09-18T18:09:36.757Z,10.10
2022-09-18T18:12:05.578Z,10.00
2022-09-18T18:14:33.225Z,10.00
2022-09-18T18:17:01.679Z,10.00
2022-09-18T18:19:28.826Z,10.00
2022-09-18T18:21:55.834Z,9.90
2022-09-18T18:24:23.509Z,9.90
2022-09-18T18:26:50.758Z,9.80
2022-09-18T18:29:19.591Z,9.70
2022-09-18T18:31:48.067Z,9.70
2022-09-18T18:34:22.167Z,9.60
2022-09-18T18:36:50.350Z,9.60
2022-09-18T18:39:20.027Z,9.60
2022-09-18T18:41:47.399Z,9.60
2022-09-18T18:44:14.914Z,9.50
2022-09-18T18:46:41.987Z,9.40
2022-09-18T18:49:12.073Z,9.30
2022-09-18T18:51:43.834Z,9.20
2022-09-18T18:54:11.653Z,9.20
2022-09-18T18:56:39.220Z,9.10
2022-09-18T18:59:09.177Z,9.20
2022-09-18T19:01:36.336Z,9.20
2022-09-18T19:04:09.142Z,9.10
2022-09-18T19:06:39.013Z,9.10
2022-09-18T19:09:20.236Z,9.10
2022-09-18T19:11:49.538Z,9.00
2022-09-18T19:14:26.098Z,8.90
2022-09-18T19:16:54.445Z,8.90
2022-09-18T19:19:24.163Z,8.90
2022-09-18T19:21:52.180Z,8.80
2022-09-18T19:24:19.493Z,8.80
2022-09-18T19:26:47.863Z,8.70
2022-09-18T19:29:17.512Z,8.70
2022-09-18T19:31:45.753Z,8.60
2022-09-18T19:34:15.297Z,8.60
2022-09-18T19:36:43.212Z,8.50
2022-09-18T19:39:11.850Z,8.40
2022-09-18T19:42:00.716Z,8.50
2022-09-18T19:44:31.339Z,8.40
2022-09-18T19:47:02.387Z,8.40
2022-09-18T19:49:32.030Z,8.40
2022-09-18T19:51:59.230Z,8.40
2022-09-18T19:54:26.228Z,8.30
2022-09-18T19:56:53.152Z,8.30
2022-09-18T19:59:20.089Z,8.20
2022-09-18T20:01:47.673Z,8.20
2022-09-18T20:04:14.681Z,8.10
2022-09-18T20:06:42.518Z,8.10
2022-09-18T20:09:10.333Z,8.10
2022-09-18T20:11:37.387Z,8.00
2022-09-18T20:14:04.346Z,8.00
2022-09-18T20:16:31.462Z,8.00
2022-09-18T20:18:58.422Z,7.90
2022-09-18T20:21:25.363Z,7.90
2022-09-18T20:23:57.485Z,7.90
2022-09-18T20:26:24.972Z,7.80
2022-09-18T20:28:52.255Z,7.80
2022-09-18T20:31:20.687Z,7.80
2022-09-18T20:33:47.667Z,7.80
2022-09-18T20:36:14.653Z,7.70
2022-09-18T20:38:43.462Z,7.70
2022-09-18T20:41:13.988Z,7.70
2022-09-18T20:43:42.576Z,7.60
2022-09-18T20:46:15.918Z,7.50
2022-09-18T20:48:46.506Z,7.50
2022-09-18T20:51:15.513Z,7.50
2022-09-18T20:53:44.948Z,7.50
2022-09-18T20:56:13.868Z,7.40
2022-09-18T20:58:42.368Z,7.40
2022-09-18T21:01:20.352Z,7.30
2022-09-18T21:03:49.893Z,7.30
2022-09-18T21:06:23.061Z,7.30
2022-09-18T21:08:53.599Z,7.20
2022-09-18T21:11:26.161Z,7.10
2022-09-18T21:13:55.863Z,7.10
2022-09-18T21:16:25.303Z,7.10
2022-09-18T21:18:56.271Z,7.00
2022-09-18T21:21:23.594Z,7.00
2022-09-18T21:23:53.844Z,7.00
2022-09-18T21:26:21.891Z,7.00
2022-09-18T21:28:53.621Z,7.00
2022-09-18T21:31:21.224Z,7.00
2022-09-18T21:33:53.025Z,6.90
2022-09-18T21:36:22.341Z,6.90
2022-09-18T21:38:50.421Z,6.90
2022-09-18T21:41:19.769Z,6.90
2022-09-18T21:43:50.692Z,6.90
2022-09-18T21:46:20.338Z,6.80
2022-09-18T21:48:48.889Z,6.80
2022-09-18T21:51:16.925Z,6.80
2022-09-18T21:53:44.628Z,6.70
2022-09-18T21:56:18.393Z,6.70
2022-09-18T21:58:46.844Z,6.60
2022-09-18T22:01:20.328Z,6.60
2022-09-18T22:03:56.136Z,6.60
2022-09-18T22:06:27.441Z,6.60
2022-09-18T22:08:56.586Z,6.60
2022-09-18T22:11:28.829Z,6.60
2022-09-18T22:14:00.955Z,6.60
2022-09-18T22:16:31.393Z,6.60
2022-09-18T22:18:58.868Z,6.60
2022-09-18T22:21:28.188Z,6.60
2022-09-18T22:24:01.025Z,6.50
2022-09-18T22:26:28.699Z,6.50
2022-09-18T22:28:57.258Z,6.50
2022-09-18T22:31:25.103Z,6.50
2022-09-18T22:33:57.744Z,6.50
2022-09-18T22:36:26.261Z,6.50
2022-09-18T22:38:54.450Z,6.40
2022-09-18T22:41:22.037Z,6.50
2022-09-18T22:43:54.762Z,6.40
2022-09-18T22:46:23.034Z,6.40
2022-09-18T22:48:50.279Z,6.50
2022-09-18T22:51:19.573Z,6.40
2022-09-18T22:53:52.467Z,6.40
2022-09-18T22:56:20.885Z,6.40
2022-09-18T22:58:48.293Z,6.40
2022-09-18T23:01:21.821Z,6.40
2022-09-18T23:03:50.909Z,6.40
2022-09-18T23:06:20.670Z,6.40
2022-09-18T23:08:49.476Z,6.50
2022-09-18T23:11:19.633Z,6.50
2022-09-18T23:13:49.441Z,6.50
2022-09-18T23:16:16.768Z,6.40
2022-09-18T23:18:55.549Z,6.40
2022-09-18T23:21:23.850Z,6.40
2022-09-18T23:23:53.838Z,6.40
2022-09-18T23:26:35.281Z,6.30
2022-09-18T23:29:05.708Z,6.30
2022-09-18T23:31:35.633Z,6.20
2022-09-18T23:34:07.129Z,6.20
2022-09-18T23:36:37.102Z,6.20
2022-09-18T23:39:07.610Z,6.20
2022-09-18T23:41:34.838Z,6.30
2022-09-18T23:44:02.780Z,6.30
2022-09-18T23:46:30.200Z,6.20
2022-09-18T23:48:57.997Z,6.20
2022-09-18T23:51:27.781Z,6.10
2022-09-18T23:54:00.018Z,6.10
2022-09-18T23:56:29.289Z,6.10
2022-09-18T23:59:07.541Z,6.10
